createdAt,value
2022-08-07T00:01:44.148Z,99.90
2022-08-07T00:05:53.991Z,99.90
2022-08-07T00:10:19.300Z,99.90
2022-08-07T00:14:18.052Z,99.90
2022-08-07T00:18:24.391Z,99.90
2022-08-07T00:22:35.114Z,99.90
2022-08-07T00:26:59.102Z,99.90
2022-08-07T00:31:05.710Z,99.90
2022-08-07T00:35:11.084Z,99.90
2022-08-07T00:39:20.355Z,99.90
2022-08-07T00:44:00.977Z,99.90
2022-08-07T00:48:09.741Z,99.90
2022-08-07T00:52:06.327Z,99.90
2022-08-07T00:56:13.796Z,99.90
2022-08-07T01:00:15.991Z,99.90
2022-08-07T01:04:24.555Z,99.90
2022-08-07T01:08:27.949Z,99.90
2022-08-07T01:12:31.030Z,99.90
2022-08-07T01:16:32.967Z,99.90
2022-08-07T01:20:43.277Z,99.90
2022-08-07T01:24:49.799Z,99.90
2022-08-07T01:28:55.389Z,99.90
2022-08-07T01:33:00.742Z,99.90
2022-08-07T01:37:04.353Z,99.90
2022-08-07T01:41:26.320Z,99.90
2022-08-07T01:45:36.456Z,99.90
2022-08-07T01:49:41.749Z,99.90
2022-08-07T01:54:09.086Z,99.90
2022-08-07T01:58:29.693Z,99.90
2022-08-07T02:03:20.991Z,99.90
2022-08-07T02:07:27.187Z,99.90
2022-08-07T02:12:04.032Z,99.90
2022-08-07T02:16:08.180Z,99.90
2022-08-07T02:20:23.451Z,99.90
2022-08-07T02:24:30.087Z,99.90
2022-08-07T02:28:33.388Z,99.90
2022-08-07T02:33:00.165Z,99.90
2022-08-07T02:37:01.908Z,99.90
2022-08-07T02:41:12.460Z,99.90
2022-08-07T02:45:59.446Z,99.90
2022-08-07T02:49:58.676Z,99.90
2022-08-07T02:54:02.993Z,99.90
2022-08-07T02:58:07.581Z,99.90
2022-08-07T03:02:12.962Z,99.90
2022-08-07T03:06:25.490Z,99.90
2022-08-07T03:10:34.174Z,99.90
2022-08-07T03:14:48.385Z,99.90
2022-08-07T03:18:55.453Z,99.90
2022-08-07T03:22:58.631Z,99.90
2022-08-07T03:27:02.255Z,99.90
2022-08-07T03:31:24.544Z,99.90
2022-08-07T03:35:37.919Z,99.90
2022-08-07T03:40:13.311Z,99.90
2022-08-07T03:44:21.803Z,99.90
2022-08-07T03:48:45.394Z,99.90
2022-08-07T03:53:03.741Z,99.90
2022-08-07T03:58:18.097Z,99.90
2022-08-07T04:02:21.567Z,99.90
2022-08-07T04:06:50.905Z,99.90
2022-08-07T04:12:25.661Z,99.90
2022-08-07T04:20:00.424Z,99.90
2022-08-07T04:24:10.458Z,99.90
2022-08-07T04:28:34.381Z,99.90
2022-08-07T04:32:40.109Z,99.90
2022-08-07T04:36:49.444Z,99.90
2022-08-07T04:40:56.588Z,99.90
2022-08-07T04:45:03.287Z,99.90
2022-08-07T04:49:17.891Z,99.90
2022-08-07T04:54:01.675Z,99.90
2022-08-07T04:58:27.922Z,99.90
2022-08-07T05:02:58.512Z,99.90
2022-08-07T05:07:20.409Z,99.90
2022-08-07T05:11:57.716Z,99.90
2022-08-07T05:15:56.716Z,99.90
2022-08-07T05:19:58.984Z,99.90
2022-08-07T05:24:05.562Z,99.90
2022-08-07T05:28:20.408Z,99.90
2022-08-07T05:32:26.739Z,99.90
2022-08-07T05:36:32.161Z,99.90
2022-08-07T05:40:50.665Z,99.90
2022-08-07T05:45:14.210Z,99.90
2022-08-07T05:49:24.678Z,99.90
2022-08-07T05:54:13.344Z,99.90
2022-08-07T05:57:52.964Z,99.90
2022-08-07T06:01:58.079Z,99.90
2022-08-07T06:06:01.504Z,99.90
2022-08-07T06:10:06.123Z,99.90
2022-08-07T06:14:20.888Z,99.90
2022-08-07T06:18:23.881Z,99.90
2022-08-07T06:22:34.436Z,99.90
2022-08-07T06:26:41.302Z,99.90
2022-08-07T06:30:45.962Z,99.90
2022-08-07T06:34:52.598Z,99.90
2022-08-07T06:40:12.875Z,99.90
2022-08-07T06:43:21.283Z,99.90
2022-08-07T06:47:24.405Z,99.90
2022-08-07T06:51:33.501Z,99.90
2022-08-07T06:55:53.365Z,99.90
2022-08-07T07:00:14.716Z,99.90
2022-08-07T07:04:32.748Z,99.90
2022-08-07T07:08:35.376Z,99.90
2022-08-07T07:12:48.953Z,99.90
2022-08-07T07:16:53.783Z,99.90
2022-08-07T07:21:13.685Z,99.90
2022-08-07T07:26:35.243Z,99.90
2022-08-07T07:30:07.397Z,99.90
2022-08-07T07:34:17.689Z,99.90
2022-08-07T07:38:35.808Z,99.90
2022-08-07T07:42:38.807Z,99.90
2022-08-07T07:46:56.137Z,99.90
2022-08-07T07:51:07.544Z,99.90
2022-08-07T07:55:12.752Z,99.90
2022-08-07T07:59:18.473Z,98.80
2022-08-07T08:04:10.906Z,97.70
2022-08-07T08:08:06.383Z,98.00
2022-08-07T08:12:58.911Z,97.00
2022-08-07T08:17:56.762Z,96.20
2022-08-07T08:22:00.484Z,95.20
2022-08-07T08:26:21.679Z,96.40
2022-08-07T08:30:51.140Z,96.40
2022-08-07T08:35:05.275Z,94.80
2022-08-07T08:43:56.088Z,93.90
2022-08-07T08:48:21.166Z,94.20
2022-08-07T08:52:40.906Z,94.70
2022-08-07T08:56:58.549Z,92.00
2022-08-07T09:01:15.918Z,92.30
2022-08-07T09:05:36.655Z,91.90
2022-08-07T09:09:48.346Z,90.30
2022-08-07T09:14:04.549Z,86.10
2022-08-07T09:18:27.932Z,84.80
2022-08-07T09:24:33.017Z,83.20
2022-08-07T09:27:15.044Z,81.60
2022-08-07T09:31:25.431Z,77.60
2022-08-07T09:36:03.158Z,78.50
2022-08-07T09:40:15.701Z,79.20
2022-08-07T09:44:58.645Z,79.60
2022-08-07T09:50:02.500Z,72.80
2022-08-07T09:53:55.077Z,74.00
2022-08-07T09:58:01.194Z,72.60
2022-08-07T10:02:24.097Z,72.40
2022-08-07T10:06:41.450Z,72.30
2022-08-07T10:12:00.318Z,73.10
2022-08-07T10:15:44.609Z,71.40
2022-08-07T10:20:12.958Z,71.00
2022-08-07T10:24:30.192Z,70.10
2022-08-07T10:28:59.737Z,69.40
2022-08-07T10:33:02.715Z,68.20
2022-08-07T10:37:21.599Z,68.10
2022-08-07T10:41:47.487Z,68.90
2022-08-07T10:46:05.841Z,67.60
2022-08-07T10:50:12.906Z,65.80
2022-08-07T10:54:36.916Z,65.40
2022-08-07T10:58:47.828Z,63.60
2022-08-07T11:07:58.923Z,65.10
2022-08-07T11:11:51.764Z,63.20
2022-08-07T11:15:55.742Z,63.10
2022-08-07T11:20:38.675Z,63.00
2022-08-07T11:24:45.541Z,62.50
2022-08-07T11:28:55.715Z,62.10
2022-08-07T11:42:35.098Z,62.00
2022-08-07T11:47:13.670Z,62.50
2022-08-07T11:51:46.815Z,60.90
2022-08-07T11:56:27.251Z,61.30
2022-08-07T12:00:53.686Z,61.30
2022-08-07T13:29:54.116Z,54.80
2022-08-07T15:06:55.835Z,52.90
2022-08-07T15:44:23.634Z,53.10
2022-08-07T15:48:34.141Z,54.10
2022-08-07T15:52:51.722Z,53.10
2022-08-07T15:57:27.828Z,53.40
2022-08-07T16:01:35.049Z,53.40
2022-08-07T16:05:55.143Z,53.70
2022-08-07T16:10:14.728Z,53.20
2022-08-07T16:14:30.733Z,53.40
2022-08-07T16:18:55.455Z,54.00
2022-08-07T16:23:09.688Z,53.70
2022-08-07T16:59:15.068Z,52.60
2022-08-07T17:03:58.274Z,52.70
2022-08-07T17:07:58.015Z,52.80
2022-08-07T17:12:33.575Z,51.90
2022-08-07T17:16:43.607Z,52.60
2022-08-07T17:20:46.684Z,52.10
2022-08-07T17:24:57.642Z,52.10
2022-08-07T17:30:12.956Z,51.70
2022-08-07T17:34:32.554Z,51.20
2022-08-07T17:38:32.254Z,50.90
2022-08-07T17:42:36.174Z,52.80
2022-08-07T17:47:08.483Z,53.20
2022-08-07T17:51:21.664Z,53.40
2022-08-07T17:56:00.940Z,53.60
2022-08-07T18:00:06.431Z,54.00
2022-08-07T18:04:42.606Z,54.00
2022-08-07T18:09:01.908Z,55.20
2022-08-07T18:13:09.699Z,55.70
2022-08-07T18:18:45.312Z,56.30
2022-08-07T18:22:03.687Z,56.60
2022-08-07T18:26:14.941Z,57.60
2022-08-07T18:30:31.340Z,58.00
2022-08-07T18:35:05.003Z,58.40
2022-08-07T18:44:09.989Z,64.70
2022-08-07T18:50:05.484Z,66.60
2022-08-07T18:52:54.485Z,67.90
2022-08-07T18:57:29.445Z,68.90
2022-08-07T19:02:19.233Z,69.90
2022-08-07T19:06:07.215Z,70.80
2022-08-07T19:10:18.627Z,71.70
2022-08-07T19:14:51.286Z,72.90
2022-08-07T19:19:14.282Z,73.80
2022-08-07T19:23:57.445Z,75.40
2022-08-07T19:28:30.460Z,76.20
2022-08-07T19:32:18.559Z,77.30
2022-08-07T19:36:29.804Z,78.00
2022-08-07T19:40:50.641Z,78.90
2022-08-07T19:44:58.895Z,80.00
2022-08-07T19:49:08.417Z,81.50
2022-08-07T19:54:34.579Z,82.00
2022-08-07T19:58:01.915Z,83.00
2022-08-07T20:02:04.446Z,84.00
2022-08-07T20:06:06.918Z,84.80
2022-08-07T20:10:35.427Z,85.60
2022-08-07T20:14:53.688Z,86.10
2022-08-07T20:18:58.013Z,87.10
2022-08-07T20:23:23.130Z,87.70
2022-08-07T20:27:46.230Z,88.10
2022-08-07T20:31:51.612Z,87.80
2022-08-07T20:35:54.591Z,88.50
2022-08-07T20:40:33.054Z,88.50
2022-08-07T20:44:30.772Z,89.40
2022-08-07T20:48:36.359Z,90.00
2022-08-07T20:52:51.443Z,90.40
2022-08-07T20:56:56.550Z,90.40
2022-08-07T21:01:04.573Z,90.80
2022-08-07T21:05:16.529Z,90.70
2022-08-07T21:09:24.655Z,90.90
2022-08-07T21:13:57.129Z,91.40
2022-08-07T21:18:20.879Z,91.40
2022-08-07T21:22:16.544Z,91.90
2022-08-07T21:26:27.393Z,91.70
2022-08-07T21:30:37.632Z,91.10
2022-08-07T21:34:46.126Z,91.60
2022-08-07T21:39:47.221Z,92.10
2022-08-07T21:43:56.191Z,92.20
2022-08-07T21:48:01.630Z,93.10
2022-08-07T21:52:33.107Z,94.10
2022-08-07T21:56:54.901Z,94.30
2022-08-07T22:01:08.438Z,94.70
2022-08-07T22:05:44.322Z,95.30
2022-08-07T22:09:54.200Z,96.00
2022-08-07T22:13:57.762Z,96.90
2022-08-07T22:17:59.717Z,97.40
2022-08-07T22:22:17.804Z,96.50
2022-08-07T22:26:26.226Z,97.00
2022-08-07T22:30:30.408Z,97.50
2022-08-07T22:34:49.658Z,98.40
2022-08-07T22:39:05.123Z,99.00
2022-08-07T22:43:14.805Z,99.50
2022-08-07T22:47:35.581Z,99.90
2022-08-07T22:51:44.934Z,98.90
2022-08-07T22:55:59.756Z,99.90
2022-08-07T23:00:19.245Z,99.90
2022-08-07T23:04:35.890Z,99.90
2022-08-07T23:10:05.952Z,99.90
2022-08-07T23:13:29.546Z,99.90
2022-08-07T23:18:09.432Z,99.90
2022-08-07T23:22:30.675Z,99.90
2022-08-07T23:26:42.155Z,99.90
2022-08-07T23:31:07.177Z,99.90
2022-08-07T23:35:16.939Z,99.90
2022-08-07T23:39:26.576Z,99.90
2022-08-07T23:43:54.015Z,99.90
2022-08-07T23:48:05.225Z,99.90
2022-08-07T23:53:05.839Z,99.90
2022-08-07T23:56:41.732Z,99.90
